createdAt,value
2023-03-17T00:01:11.945Z,-1.02
2023-03-17T00:03:42.951Z,-0.96
2023-03-17T00:06:18.038Z,-0.82
2023-03-17T00:08:48.143Z,-0.95
2023-03-17T00:11:16.532Z,-0.67
2023-03-17T00:13:44.741Z,-0.64
2023-03-17T00:16:42.285Z,-0.72
2023-03-17T00:19:16.654Z,-0.45
2023-03-17T00:21:46.086Z,-0.29
2023-03-17T00:24:15.055Z,-0.17
2023-03-17T00:26:43.391Z,-0.20
2023-03-17T00:29:10.618Z,-0.30
2023-03-17T00:31:39.287Z,-0.26
2023-03-17T00:34:08.016Z,-0.28
2023-03-17T00:36:35.826Z,-0.16
2023-03-17T00:39:03.689Z,-0.01
2023-03-17T00:41:31.297Z,-0.40
2023-03-17T00:43:59.454Z,-0.35
2023-03-17T00:46:35.740Z,-0.28
2023-03-17T00:49:05.307Z,-0.21
2023-03-17T00:51:32.850Z,-0.26
2023-03-17T00:53:59.685Z,-0.26
2023-03-17T00:56:28.019Z,-0.52
2023-03-17T00:58:55.041Z,-0.25
2023-03-17T01:01:22.297Z,-0.17
2023-03-17T01:03:49.244Z,-0.18
2023-03-17T01:06:16.818Z,-0.11
2023-03-17T01:08:44.793Z,-0.11
2023-03-17T01:11:21.851Z,0.03
2023-03-17T01:13:48.793Z,0.06
2023-03-17T01:16:17.003Z,0.07
2023-03-17T01:18:44.090Z,0.31
2023-03-17T01:21:12.878Z,0.20
2023-03-17T01:23:39.838Z,0.05
2023-03-17T01:26:07.760Z,0.16
2023-03-17T01:28:35.102Z,0.18
2023-03-17T01:31:02.948Z,-0.04
2023-03-17T01:33:30.193Z,0.12
2023-03-17T01:35:57.643Z,0.24
2023-03-17T01:38:24.880Z,0.17
2023-03-17T01:40:53.551Z,0.12
2023-03-17T01:43:25.496Z,0.08
2023-03-17T01:46:14.761Z,0.10
2023-03-17T01:48:43.277Z,0.18
2023-03-17T01:51:16.475Z,-0.07
2023-03-17T01:53:45.325Z,0.08
2023-03-17T01:56:13.236Z,-0.06
2023-03-17T01:58:40.603Z,-0.10
2023-03-17T02:01:08.116Z,-0.08
2023-03-17T02:03:35.088Z,-0.21
2023-03-17T02:06:02.901Z,-0.08
2023-03-17T02:08:31.352Z,-0.12
2023-03-17T02:11:03.475Z,-0.20
2023-03-17T02:13:31.878Z,-0.07
2023-03-17T02:15:59.360Z,-0.12
2023-03-17T02:18:27.132Z,-0.06
2023-03-17T02:20:54.509Z,-0.03
2023-03-17T02:23:25.656Z,0.06
2023-03-17T02:25:53.957Z,0.14
2023-03-17T02:28:26.035Z,0.37
2023-03-17T02:30:53.610Z,0.12
2023-03-17T02:33:20.883Z,0.20
2023-03-17T02:35:48.422Z,0.07
2023-03-17T02:38:17.630Z,0.04
2023-03-17T02:40:44.946Z,0.22
2023-03-17T02:43:12.307Z,0.11
2023-03-17T02:45:39.518Z,0.06
2023-03-17T02:48:07.253Z,0.21
2023-03-17T02:50:34.830Z,-0.11
2023-03-17T02:53:01.801Z,0.15
2023-03-17T02:55:28.925Z,0.16
2023-03-17T02:57:56.052Z,0.28
2023-03-17T03:00:23.220Z,0.22
2023-03-17T03:02:50.199Z,0.36
2023-03-17T03:05:17.771Z,0.07
2023-03-17T03:07:44.715Z,0.21
2023-03-17T03:10:12.044Z,0.36
2023-03-17T03:12:40.188Z,0.43
2023-03-17T03:15:07.739Z,0.30
2023-03-17T03:17:34.996Z,0.30
2023-03-17T03:20:02.788Z,0.26
2023-03-17T03:22:29.965Z,0.12
2023-03-17T03:24:57.165Z,0.31
2023-03-17T03:27:24.398Z,0.33
2023-03-17T03:29:51.664Z,0.27
2023-03-17T03:32:18.567Z,0.40
2023-03-17T03:34:46.036Z,0.44
2023-03-17T03:37:12.958Z,0.48
2023-03-17T03:39:40.324Z,0.38
2023-03-17T03:42:07.365Z,0.45
2023-03-17T03:44:34.675Z,0.19
2023-03-17T03:47:01.863Z,0.26
2023-03-17T03:49:29.219Z,0.47
2023-03-17T03:51:56.165Z,0.42
2023-03-17T03:54:23.815Z,0.21
2023-03-17T03:56:50.766Z,0.05
2023-03-17T03:59:18.022Z,0.29
2023-03-17T04:01:45.708Z,0.15
2023-03-17T04:04:13.192Z,0.18
2023-03-17T04:06:40.249Z,0.21
2023-03-17T04:09:07.549Z,0.24
2023-03-17T04:11:34.559Z,0.03
2023-03-17T04:14:02.332Z,0.07
2023-03-17T04:16:29.522Z,0.28
2023-03-17T04:18:57.504Z,0.25
2023-03-17T04:21:24.417Z,0.35
2023-03-17T04:23:51.974Z,0.10
2023-03-17T04:26:19.043Z,0.31
2023-03-17T04:28:46.552Z,0.21
2023-03-17T04:31:13.693Z,0.23
2023-03-17T04:33:41.222Z,0.12
2023-03-17T04:36:08.564Z,0.44
2023-03-17T04:38:36.070Z,0.38
2023-03-17T04:41:03.030Z,0.22
2023-03-17T04:43:30.389Z,0.30
2023-03-17T04:45:58.012Z,0.37
2023-03-17T04:48:26.993Z,0.39
2023-03-17T04:50:54.066Z,0.44
2023-03-17T04:53:22.521Z,0.50
2023-03-17T04:55:50.776Z,0.35
2023-03-17T04:58:30.044Z,0.31
2023-03-17T05:00:59.164Z,0.22
2023-03-17T05:03:28.857Z,0.32
2023-03-17T05:05:57.484Z,0.14
2023-03-17T05:08:25.769Z,0.05
2023-03-17T05:10:53.083Z,0.22
2023-03-17T05:13:20.956Z,0.25
2023-03-17T05:15:48.741Z,0.19
2023-03-17T05:18:18.429Z,0.42
2023-03-17T05:20:46.206Z,0.48
2023-03-17T05:23:13.662Z,0.48
2023-03-17T05:25:41.810Z,0.25
2023-03-17T05:28:10.288Z,0.32
2023-03-17T05:30:37.868Z,0.57
2023-03-17T05:33:06.106Z,0.42
2023-03-17T05:35:33.182Z,0.54
2023-03-17T05:38:00.638Z,0.52
2023-03-17T05:40:27.738Z,0.48
2023-03-17T05:42:55.114Z,0.51
2023-03-17T05:45:22.162Z,0.56
2023-03-17T05:47:49.861Z,0.42
2023-03-17T05:50:17.309Z,0.45
2023-03-17T05:52:45.232Z,0.53
2023-03-17T05:55:12.577Z,0.43
2023-03-17T05:57:40.116Z,0.45
2023-03-17T06:00:07.968Z,0.55
2023-03-17T06:02:35.686Z,0.55
2023-03-17T06:05:03.559Z,0.28
2023-03-17T06:07:41.301Z,0.56
2023-03-17T06:10:15.598Z,0.56
2023-03-17T06:12:42.886Z,0.50
2023-03-17T06:15:10.063Z,0.51
2023-03-17T06:17:37.227Z,0.69
2023-03-17T06:20:04.614Z,0.62
2023-03-17T06:22:31.981Z,0.64
2023-03-17T06:24:58.936Z,0.64
2023-03-17T06:27:26.346Z,0.85
2023-03-17T06:29:53.354Z,0.94
2023-03-17T06:32:21.216Z,1.16
2023-03-17T06:34:48.337Z,0.92
2023-03-17T06:37:16.457Z,0.86
2023-03-17T06:39:43.830Z,1.17
2023-03-17T06:42:11.343Z,1.02
2023-03-17T06:44:38.216Z,1.19
2023-03-17T06:47:05.533Z,1.04
2023-03-17T06:49:32.454Z,1.13
2023-03-17T06:51:59.749Z,0.97
2023-03-17T06:54:26.973Z,1.32
2023-03-17T06:56:54.325Z,1.08
2023-03-17T06:59:21.937Z,1.03
2023-03-17T07:01:49.561Z,1.41
2023-03-17T07:04:22.147Z,1.10
2023-03-17T07:06:50.178Z,1.39
2023-03-17T07:09:17.565Z,1.18
2023-03-17T07:11:44.784Z,1.46
2023-03-17T07:14:11.926Z,1.69
2023-03-17T07:16:40.227Z,1.87
2023-03-17T07:19:07.315Z,1.49
2023-03-17T07:21:34.563Z,1.80
2023-03-17T07:24:01.728Z,1.76
2023-03-17T07:26:29.171Z,1.57
2023-03-17T07:28:56.172Z,1.81
2023-03-17T07:31:24.237Z,1.78
2023-03-17T07:33:51.854Z,2.07
2023-03-17T07:36:19.271Z,1.81
2023-03-17T07:38:46.632Z,2.02
2023-03-17T07:41:13.937Z,1.71
2023-03-17T07:43:41.738Z,2.21
2023-03-17T07:46:09.315Z,2.29
2023-03-17T07:48:42.155Z,2.27
2023-03-17T07:51:13.814Z,1.83
2023-03-17T07:53:41.068Z,2.01
2023-03-17T07:56:08.752Z,2.07
2023-03-17T07:58:36.018Z,2.32
2023-03-17T08:01:03.424Z,2.32
2023-03-17T08:03:30.656Z,2.55
2023-03-17T08:05:59.363Z,2.49
2023-03-17T08:08:27.270Z,2.68
2023-03-17T08:10:58.533Z,3.03
2023-03-17T08:13:25.958Z,3.02
2023-03-17T08:15:53.407Z,3.33
2023-03-17T08:18:20.372Z,2.67
2023-03-17T08:20:47.609Z,2.96
2023-03-17T08:23:14.644Z,3.17
2023-03-17T08:25:41.900Z,2.84
2023-03-17T08:28:09.532Z,2.96
2023-03-17T08:30:38.568Z,3.31
2023-03-17T08:33:05.930Z,3.03
2023-03-17T08:35:34.543Z,2.98
2023-03-17T08:38:02.503Z,3.33
2023-03-17T08:40:30.394Z,3.60
2023-03-17T08:42:57.555Z,3.35
2023-03-17T08:45:24.770Z,3.85
2023-03-17T08:47:52.551Z,3.43
2023-03-17T08:50:22.000Z,3.51
2023-03-17T08:52:49.585Z,3.75
2023-03-17T08:55:17.630Z,3.68
2023-03-17T08:57:44.805Z,3.93
2023-03-17T09:00:13.921Z,4.50
2023-03-17T09:02:43.062Z,4.86
2023-03-17T09:05:14.436Z,4.90
2023-03-17T09:07:41.873Z,4.43
2023-03-17T09:10:10.792Z,5.03
2023-03-17T09:12:38.143Z,4.78
2023-03-17T09:15:05.939Z,4.85
2023-03-17T09:17:33.135Z,4.64
2023-03-17T09:20:00.419Z,4.93
2023-03-17T09:22:27.458Z,4.96
2023-03-17T09:24:54.618Z,5.12
2023-03-17T09:27:21.564Z,5.23
2023-03-17T09:29:48.821Z,5.13
2023-03-17T09:32:16.065Z,5.18
2023-03-17T09:34:43.517Z,4.96
2023-03-17T09:37:10.631Z,5.42
2023-03-17T09:39:37.821Z,5.16
2023-03-17T09:42:24.584Z,5.25
2023-03-17T09:45:02.016Z,5.06
2023-03-17T09:47:31.930Z,5.20
2023-03-17T09:50:01.204Z,5.41
2023-03-17T09:52:30.351Z,5.28
2023-03-17T09:54:57.928Z,5.46
2023-03-17T09:57:29.457Z,5.56
2023-03-17T10:00:06.612Z,5.44
2023-03-17T10:02:37.432Z,5.64
2023-03-17T10:05:13.909Z,5.60
2023-03-17T10:07:44.636Z,5.77
2023-03-17T10:10:24.179Z,5.85
2023-03-17T10:13:09.638Z,6.39
2023-03-17T10:16:00.163Z,6.07
2023-03-17T10:18:29.854Z,6.32
2023-03-17T10:20:59.532Z,6.61
2023-03-17T10:23:33.795Z,6.78
2023-03-17T10:26:05.341Z,6.28
2023-03-17T10:28:36.244Z,6.11
2023-03-17T10:31:29.983Z,6.48
2023-03-17T10:33:59.043Z,6.65
2023-03-17T10:36:34.774Z,6.96
2023-03-17T10:39:05.276Z,6.79
2023-03-17T10:41:36.526Z,6.54
2023-03-17T10:44:08.539Z,6.83
2023-03-17T10:46:37.848Z,6.79
2023-03-17T10:49:09.377Z,6.36
2023-03-17T10:51:37.551Z,6.65
2023-03-17T10:54:09.946Z,6.62
2023-03-17T10:56:38.681Z,6.49
2023-03-17T10:59:19.457Z,6.62
2023-03-17T11:01:49.872Z,6.90
2023-03-17T11:04:28.104Z,7.17
2023-03-17T11:06:57.077Z,6.83
2023-03-17T11:09:24.582Z,7.10
2023-03-17T11:12:02.754Z,7.27
2023-03-17T11:14:30.400Z,6.74
2023-03-17T11:16:59.256Z,7.05
2023-03-17T11:19:32.420Z,7.05
2023-03-17T11:22:05.007Z,7.07
2023-03-17T11:24:34.211Z,6.93
2023-03-17T11:27:21.231Z,7.25
2023-03-17T11:29:51.577Z,7.12
2023-03-17T11:32:28.708Z,7.67
2023-03-17T11:35:14.210Z,7.43
2023-03-17T11:37:56.758Z,7.39
2023-03-17T11:40:40.382Z,7.36
2023-03-17T11:43:22.090Z,7.76
2023-03-17T11:45:55.345Z,8.30
2023-03-17T11:48:38.412Z,8.06
2023-03-17T11:51:15.433Z,8.47
2023-03-17T11:53:43.470Z,8.05
2023-03-17T11:56:32.094Z,8.21
2023-03-17T11:59:02.080Z,7.78
2023-03-17T12:01:34.392Z,8.09
2023-03-17T12:04:03.181Z,8.48
2023-03-17T12:06:32.551Z,8.24
2023-03-17T12:09:26.002Z,8.39
2023-03-17T12:11:54.325Z,8.22
2023-03-17T12:14:30.268Z,8.27
2023-03-17T12:17:04.958Z,8.19
2023-03-17T12:19:39.328Z,8.32
2023-03-17T12:22:18.997Z,8.82
2023-03-17T12:24:54.622Z,8.76
2023-03-17T12:27:37.418Z,8.61
2023-03-17T12:30:15.911Z,9.04
2023-03-17T12:32:50.172Z,8.47
2023-03-17T12:35:32.113Z,8.41
2023-03-17T12:38:01.206Z,8.89
2023-03-17T12:40:49.163Z,8.77
2023-03-17T12:43:19.394Z,8.98
2023-03-17T12:45:54.211Z,8.87
2023-03-17T12:48:31.097Z,9.13
2023-03-17T12:51:06.104Z,9.07
2023-03-17T12:53:39.962Z,9.32
2023-03-17T12:56:26.105Z,9.37
2023-03-17T12:58:54.286Z,9.13
2023-03-17T13:01:24.495Z,8.74
2023-03-17T13:04:00.477Z,9.17
2023-03-17T13:06:30.480Z,9.72
2023-03-17T13:09:17.913Z,9.47
2023-03-17T13:11:48.420Z,9.13
2023-03-17T13:14:25.509Z,10.08
2023-03-17T13:17:02.815Z,9.80
2023-03-17T13:19:33.773Z,9.94
2023-03-17T13:22:01.229Z,10.15
2023-03-17T13:24:48.403Z,9.57
2023-03-17T13:27:35.642Z,9.84
2023-03-17T13:30:26.235Z,9.59
2023-03-17T13:32:57.446Z,9.48
2023-03-17T13:35:37.971Z,9.63
2023-03-17T13:38:23.837Z,9.60
2023-03-17T13:41:06.106Z,9.51
2023-03-17T13:43:51.849Z,9.96
2023-03-17T13:46:18.885Z,10.34
2023-03-17T13:48:46.403Z,9.73
2023-03-17T13:51:21.976Z,10.05
2023-03-17T13:53:51.619Z,10.26
2023-03-17T13:56:23.046Z,10.00
2023-03-17T13:58:53.251Z,10.05
2023-03-17T14:01:21.598Z,10.18
2023-03-17T14:03:50.282Z,10.36
2023-03-17T14:06:19.487Z,10.03
2023-03-17T14:08:55.405Z,9.26
2023-03-17T14:11:28.213Z,9.69
2023-03-17T14:14:03.926Z,8.85
2023-03-17T14:16:33.804Z,9.32
2023-03-17T14:19:10.916Z,9.11
2023-03-17T14:21:38.140Z,9.33
2023-03-17T14:24:17.907Z,9.32
2023-03-17T14:26:45.313Z,9.20
2023-03-17T14:29:14.273Z,8.85
2023-03-17T14:31:43.182Z,9.22
2023-03-17T14:34:14.721Z,9.02
2023-03-17T14:36:42.609Z,9.40
2023-03-17T14:39:21.846Z,9.87
2023-03-17T14:41:56.962Z,8.99
2023-03-17T14:44:24.339Z,8.76
2023-03-17T14:46:51.578Z,8.84
2023-03-17T14:49:20.462Z,8.84
2023-03-17T14:51:49.971Z,9.16
2023-03-17T14:54:22.889Z,9.24
2023-03-17T14:57:16.547Z,9.25
2023-03-17T14:59:54.902Z,9.15
2023-03-17T15:02:23.969Z,8.98
2023-03-17T15:04:56.980Z,8.93
2023-03-17T15:07:30.106Z,9.08
2023-03-17T15:09:58.327Z,9.38
2023-03-17T15:12:26.480Z,8.85
2023-03-17T15:14:58.188Z,8.89
2023-03-17T15:17:31.168Z,8.43
2023-03-17T15:20:02.021Z,8.53
2023-03-17T15:22:34.880Z,8.69
2023-03-17T15:25:22.450Z,8.48
2023-03-17T15:27:49.593Z,8.40
2023-03-17T15:30:17.540Z,8.42
2023-03-17T15:32:44.837Z,8.42
2023-03-17T15:35:14.047Z,8.20
2023-03-17T15:37:41.797Z,8.24
2023-03-17T15:40:10.165Z,8.22
2023-03-17T15:42:45.770Z,8.05
2023-03-17T15:45:16.816Z,8.36
2023-03-17T15:47:44.814Z,8.25
2023-03-17T15:50:12.637Z,8.08
2023-03-17T15:52:39.820Z,7.88
2023-03-17T15:55:15.189Z,8.18
2023-03-17T15:57:46.182Z,8.13
2023-03-17T16:00:19.129Z,8.10
2023-03-17T16:02:49.374Z,7.74
2023-03-17T16:05:21.780Z,7.94
2023-03-17T16:07:49.282Z,7.95
2023-03-17T16:10:41.511Z,7.88
2023-03-17T16:13:10.492Z,7.82
2023-03-17T16:15:42.196Z,8.04
2023-03-17T16:18:14.430Z,7.99
2023-03-17T16:20:43.595Z,7.68
2023-03-17T16:23:18.320Z,7.64
2023-03-17T16:25:46.237Z,7.54
2023-03-17T16:28:23.772Z,7.50
2023-03-17T16:30:53.078Z,7.61
2023-03-17T16:33:22.276Z,7.43
2023-03-17T16:35:52.545Z,7.35
2023-03-17T16:38:27.813Z,7.32
2023-03-17T16:41:02.484Z,7.39
2023-03-17T16:43:32.673Z,7.39
2023-03-17T16:46:11.721Z,7.31
2023-03-17T16:48:39.329Z,7.14
2023-03-17T16:51:07.779Z,7.03
2023-03-17T16:53:35.907Z,7.08
2023-03-17T16:56:06.988Z,7.15
2023-03-17T16:58:37.183Z,6.98
2023-03-17T17:01:09.976Z,7.05
2023-03-17T17:03:38.051Z,7.06
2023-03-17T17:06:07.271Z,7.02
2023-03-17T17:08:35.064Z,6.88
2023-03-17T17:11:09.275Z,6.77
2023-03-17T17:13:38.224Z,6.68
2023-03-17T17:16:07.383Z,6.77
2023-03-17T17:18:37.712Z,6.74
2023-03-17T17:21:05.599Z,6.35
2023-03-17T17:23:32.591Z,6.54
2023-03-17T17:26:00.143Z,6.44
2023-03-17T17:28:27.621Z,6.54
2023-03-17T17:30:55.692Z,6.59
2023-03-17T17:33:23.010Z,6.34
2023-03-17T17:35:51.309Z,6.44
2023-03-17T17:38:18.346Z,6.26
2023-03-17T17:40:45.666Z,6.07
2023-03-17T17:43:13.029Z,6.44
2023-03-17T17:45:41.492Z,6.25
2023-03-17T17:48:09.946Z,6.10
2023-03-17T17:50:37.528Z,6.10
2023-03-17T17:53:08.677Z,6.21
2023-03-17T17:55:36.729Z,6.20
2023-03-17T17:58:04.200Z,6.21
2023-03-17T18:00:32.771Z,5.87
2023-03-17T18:03:00.609Z,5.98
2023-03-17T18:05:30.170Z,6.06
2023-03-17T18:07:58.331Z,5.99
2023-03-17T18:10:27.775Z,6.05
2023-03-17T18:13:00.359Z,6.01
2023-03-17T18:15:29.944Z,5.98
2023-03-17T18:17:57.480Z,5.90
2023-03-17T18:20:26.306Z,5.91
2023-03-17T18:22:54.324Z,5.76
2023-03-17T18:25:28.051Z,6.07
2023-03-17T18:27:55.693Z,5.76
2023-03-17T18:30:28.747Z,5.98
2023-03-17T18:32:58.076Z,5.69
2023-03-17T18:35:40.501Z,5.67
2023-03-17T18:38:09.153Z,5.57
2023-03-17T18:40:37.508Z,5.68
2023-03-17T18:43:05.102Z,5.69
2023-03-17T18:45:35.423Z,5.62
2023-03-17T18:48:03.025Z,5.46
2023-03-17T18:50:31.551Z,5.60
2023-03-17T18:53:00.711Z,5.47
2023-03-17T18:55:31.685Z,5.65
2023-03-17T18:58:00.767Z,5.48
2023-03-17T19:00:28.822Z,5.83
2023-03-17T19:02:56.298Z,5.45
2023-03-17T19:05:24.768Z,5.60
2023-03-17T19:07:52.649Z,5.37
2023-03-17T19:10:21.013Z,5.24
2023-03-17T19:12:48.609Z,5.43
2023-03-17T19:15:17.275Z,5.26
2023-03-17T19:17:45.015Z,5.23
2023-03-17T19:20:13.373Z,5.18
2023-03-17T19:22:41.922Z,5.31
2023-03-17T19:25:11.185Z,5.20
2023-03-17T19:27:39.786Z,5.31
2023-03-17T19:30:07.948Z,5.42
2023-03-17T19:32:35.236Z,5.34
2023-03-17T19:35:03.385Z,5.26
2023-03-17T19:37:32.481Z,5.07
2023-03-17T19:40:01.048Z,5.01
2023-03-17T19:42:29.159Z,5.19
2023-03-17T19:44:57.201Z,5.02
2023-03-17T19:47:24.431Z,4.93
2023-03-17T19:49:52.345Z,5.08
2023-03-17T19:52:19.825Z,5.40
2023-03-17T19:54:47.517Z,5.01
2023-03-17T19:57:17.471Z,4.99
2023-03-17T19:59:45.502Z,4.92
2023-03-17T20:02:13.965Z,4.87
2023-03-17T20:04:41.677Z,4.90
2023-03-17T20:07:10.068Z,4.99
2023-03-17T20:09:38.321Z,4.98
2023-03-17T20:12:05.993Z,5.00
2023-03-17T20:14:33.834Z,4.96
2023-03-17T20:17:01.118Z,4.94
2023-03-17T20:19:30.132Z,4.88
2023-03-17T20:21:59.294Z,4.83
2023-03-17T20:24:29.297Z,4.88
2023-03-17T20:26:58.700Z,4.98
2023-03-17T20:29:26.755Z,4.77
2023-03-17T20:31:54.682Z,4.82
2023-03-17T20:34:22.835Z,4.89
2023-03-17T20:36:51.438Z,4.86
2023-03-17T20:39:22.314Z,4.87
2023-03-17T20:41:50.927Z,4.87
2023-03-17T20:44:19.109Z,4.83
2023-03-17T20:46:49.436Z,4.76
2023-03-17T20:49:17.815Z,4.76
2023-03-17T20:51:47.254Z,4.76
2023-03-17T20:54:16.769Z,4.71
2023-03-17T20:56:45.649Z,4.76
2023-03-17T21:00:04.350Z,4.77
2023-03-17T21:02:36.646Z,4.69
2023-03-17T21:05:08.096Z,4.77
2023-03-17T21:07:41.284Z,4.83
2023-03-17T21:10:12.261Z,4.79
2023-03-17T21:12:45.860Z,4.90
2023-03-17T21:15:14.851Z,4.77
2023-03-17T21:17:43.254Z,4.87
2023-03-17T21:20:15.979Z,4.87
2023-03-17T21:22:44.099Z,4.81
2023-03-17T21:25:12.806Z,5.11
2023-03-17T21:27:43.783Z,4.87
2023-03-17T21:30:59.970Z,5.07
2023-03-17T21:33:37.641Z,4.94
2023-03-17T21:36:07.319Z,4.97
2023-03-17T21:38:36.193Z,4.80
2023-03-17T21:41:22.404Z,4.95
2023-03-17T21:43:50.594Z,4.92
2023-03-17T21:46:18.462Z,4.85
2023-03-17T21:48:47.650Z,4.88
2023-03-17T21:51:17.250Z,5.18
2023-03-17T21:53:45.713Z,5.11
2023-03-17T21:56:15.573Z,5.08
2023-03-17T21:58:43.291Z,5.05
2023-03-17T22:01:11.614Z,5.21
2023-03-17T22:03:39.957Z,5.25
2023-03-17T22:06:07.806Z,5.18
2023-03-17T22:08:35.622Z,5.23
2023-03-17T22:11:07.041Z,5.23
2023-03-17T22:13:34.392Z,5.23
2023-03-17T22:16:02.490Z,5.11
2023-03-17T22:18:30.797Z,5.26
2023-03-17T22:20:59.103Z,5.29
2023-03-17T22:23:26.773Z,5.29
2023-03-17T22:25:55.647Z,5.18
2023-03-17T22:28:23.434Z,5.11
2023-03-17T22:30:51.688Z,5.26
2023-03-17T22:33:19.269Z,5.24
2023-03-17T22:35:47.006Z,5.26
2023-03-17T22:38:14.141Z,5.26
2023-03-17T22:40:42.101Z,5.35
2023-03-17T22:43:09.199Z,5.17
2023-03-17T22:45:36.649Z,5.31
2023-03-17T22:48:04.544Z,5.18
2023-03-17T22:50:32.187Z,5.20
2023-03-17T22:52:59.366Z,5.11
2023-03-17T22:55:26.697Z,5.09
2023-03-17T22:57:53.626Z,4.99
2023-03-17T23:00:21.570Z,5.15
2023-03-17T23:02:48.582Z,5.04
2023-03-17T23:05:16.041Z,5.12
2023-03-17T23:07:51.560Z,5.08
2023-03-17T23:10:23.025Z,5.00
2023-03-17T23:12:50.964Z,5.10
2023-03-17T23:15:19.778Z,5.13
2023-03-17T23:17:47.506Z,5.17
2023-03-17T23:20:15.204Z,5.07
2023-03-17T23:22:42.220Z,4.95
2023-03-17T23:25:10.166Z,4.89
2023-03-17T23:27:37.128Z,4.93
2023-03-17T23:30:05.785Z,4.92
2023-03-17T23:32:32.995Z,4.99
2023-03-17T23:35:00.824Z,4.92
2023-03-17T23:37:27.715Z,4.90
2023-03-17T23:39:55.075Z,4.99
2023-03-17T23:42:22.447Z,4.95
2023-03-17T23:44:50.402Z,4.85
2023-03-17T23:47:17.939Z,4.87
2023-03-17T23:49:45.228Z,5.03
2023-03-17T23:52:12.275Z,4.91
2023-03-17T23:54:39.894Z,4.93
2023-03-17T23:57:07.852Z,4.96
2023-03-17T23:59:35.070Z,5.15
